sensor_id;sensor_type;location;lat;lon;timestamp;temperature;humidity
3001;DHT22;1510;51.072;6.678;2023-10-31T00:00:51;11.20;99.90
3001;DHT22;1510;51.072;6.678;2023-10-31T00:03:17;11.20;99.90
3001;DHT22;1510;51.072;6.678;2023-10-31T00:05:45;11.10;99.90
3001;DHT22;1510;51.072;6.678;2023-10-31T00:08:12;11.20;99.90
3001;DHT22;1510;51.072;6.678;2023-10-31T00:10:39;11.10;99.90
3001;DHT22;1510;51.072;6.678;2023-10-31T00:13:10;11.10;99.90
3001;DHT22;1510;51.072;6.678;2023-10-31T00:15:37;11.10;99.90
3001;DHT22;1510;51.072;6.678;2023-10-31T00:18:04;11.10;99.90
3001;DHT22;1510;51.072;6.678;2023-10-31T00:20:31;11.10;99.90
3001;DHT22;1510;51.072;6.678;2023-10-31T00:22:59;11.10;99.90
3001;DHT22;1510;51.072;6.678;2023-10-31T00:25:26;11.10;99.90
3001;DHT22;1510;51.072;6.678;2023-10-31T00:27:56;11.10;99.90
3001;DHT22;1510;51.072;6.678;2023-10-31T00:30:24;11.10;99.90
3001;DHT22;1510;51.072;6.678;2023-10-31T00:32:51;11.10;99.90
3001;DHT22;1510;51.072;6.678;2023-10-31T00:35:18;11.10;99.90
3001;DHT22;1510;51.072;6.678;2023-10-31T00:37:45;11.10;99.90
3001;DHT22;1510;51.072;6.678;2023-10-31T00:40:13;11.10;99.90
3001;DHT22;1510;51.072;6.678;2023-10-31T00:42:41;11.10;99.90
3001;DHT22;1510;51.072;6.678;2023-10-31T00:45:09;11.10;99.90
3001;DHT22;1510;51.072;6.678;2023-10-31T00:47:36;11.00;99.90
3001;DHT22;1510;51.072;6.678;2023-10-31T00:50:03;11.00;99.90
3001;DHT22;1510;51.072;6.678;2023-10-31T00:52:30;11.00;99.90
3001;DHT22;1510;51.072;6.678;2023-10-31T00:54:57;11.00;99.90
3001;DHT22;1510;51.072;6.678;2023-10-31T00:57:25;11.00;99.90
3001;DHT22;1510;51.072;6.678;2023-10-31T00:59:52;11.00;99.90
3001;DHT22;1510;51.072;6.678;2023-10-31T01:02:19;11.00;99.90
3001;DHT22;1510;51.072;6.678;2023-10-31T01:04:46;11.00;99.90
3001;DHT22;1510;51.072;6.678;2023-10-31T01:07:13;11.00;99.90
3001;DHT22;1510;51.072;6.678;2023-10-31T01:09:42;10.90;99.90
3001;DHT22;1510;51.072;6.678;2023-10-31T01:12:09;10.90;99.90
3001;DHT22;1510;51.072;6.678;2023-10-31T01:14:38;10.90;99.90
3001;DHT22;1510;51.072;6.678;2023-10-31T01:17:04;10.90;99.90
3001;DHT22;1510;51.072;6.678;2023-10-31T01:19:31;10.90;99.90
3001;DHT22;1510;51.072;6.678;2023-10-31T01:21:58;10.90;99.90
3001;DHT22;1510;51.072;6.678;2023-10-31T01:24:25;10.90;99.90
3001;DHT22;1510;51.072;6.678;2023-10-31T01:26:51;10.90;99.90
3001;DHT22;1510;51.072;6.678;2023-10-31T01:29:18;10.90;99.90
3001;DHT22;1510;51.072;6.678;2023-10-31T01:31:46;10.90;99.90
3001;DHT22;1510;51.072;6.678;2023-10-31T01:34:13;10.90;99.90
3001;DHT22;1510;51.072;6.678;2023-10-31T01:36:40;10.90;99.90
3001;DHT22;1510;51.072;6.678;2023-10-31T01:39:07;10.90;99.90
3001;DHT22;1510;51.072;6.678;2023-10-31T01:41:35;10.90;99.90
3001;DHT22;1510;51.072;6.678;2023-10-31T01:44:02;10.90;99.90
3001;DHT22;1510;51.072;6.678;2023-10-31T01:46:29;10.90;99.90
3001;DHT22;1510;51.072;6.678;2023-10-31T01:48:57;10.80;99.90
3001;DHT22;1510;51.072;6.678;2023-10-31T01:51:24;10.80;99.90
3001;DHT22;1510;51.072;6.678;2023-10-31T01:53:52;10.70;99.90
3001;DHT22;1510;51.072;6.678;2023-10-31T01:56:20;10.70;99.90
3001;DHT22;1510;51.072;6.678;2023-10-31T01:58:48;10.70;99.90
3001;DHT22;1510;51.072;6.678;2023-10-31T02:01:15;10.60;99.90
3001;DHT22;1510;51.072;6.678;2023-10-31T02:03:42;10.60;99.90
3001;DHT22;1510;51.072;6.678;2023-10-31T02:06:11;10.60;99.90
3001;DHT22;1510;51.072;6.678;2023-10-31T02:08:38;10.60;99.90
3001;DHT22;1510;51.072;6.678;2023-10-31T02:11:05;10.60;99.90
3001;DHT22;1510;51.072;6.678;2023-10-31T02:13:35;10.60;99.90
3001;DHT22;1510;51.072;6.678;2023-10-31T02:16:03;10.60;99.90
3001;DHT22;1510;51.072;6.678;2023-10-31T02:18:30;10.50;99.90
3001;DHT22;1510;51.072;6.678;2023-10-31T02:20:57;10.50;99.90
3001;DHT22;1510;51.072;6.678;2023-10-31T02:23:25;10.40;99.90
3001;DHT22;1510;51.072;6.678;2023-10-31T02:25:52;10.30;99.90
3001;DHT22;1510;51.072;6.678;2023-10-31T02:28:19;10.30;99.90
3001;DHT22;1510;51.072;6.678;2023-10-31T02:30:45;10.20;99.90
3001;DHT22;1510;51.072;6.678;2023-10-31T02:33:12;10.10;99.90
3001;DHT22;1510;51.072;6.678;2023-10-31T02:35:39;10.10;99.90
3001;DHT22;1510;51.072;6.678;2023-10-31T02:38:06;10.10;99.90
3001;DHT22;1510;51.072;6.678;2023-10-31T02:40:34;10.10;99.90
3001;DHT22;1510;51.072;6.678;2023-10-31T02:43:01;10.00;99.90
3001;DHT22;1510;51.072;6.678;2023-10-31T02:45:28;10.00;99.90
3001;DHT22;1510;51.072;6.678;2023-10-31T02:47:55;10.00;99.90
3001;DHT22;1510;51.072;6.678;2023-10-31T02:50:22;9.90;99.90
3001;DHT22;1510;51.072;6.678;2023-10-31T02:52:48;9.80;99.90
3001;DHT22;1510;51.072;6.678;2023-10-31T02:55:15;9.80;99.90
3001;DHT22;1510;51.072;6.678;2023-10-31T02:57:43;9.70;99.90
3001;DHT22;1510;51.072;6.678;2023-10-31T03:00:11;9.70;99.90
3001;DHT22;1510;51.072;6.678;2023-10-31T03:02:38;9.60;99.90
3001;DHT22;1510;51.072;6.678;2023-10-31T03:05:06;9.60;99.90
3001;DHT22;1510;51.072;6.678;2023-10-31T03:07:33;9.60;99.90
3001;DHT22;1510;51.072;6.678;2023-10-31T03:10:00;9.50;99.90
3001;DHT22;1510;51.072;6.678;2023-10-31T03:12:27;9.60;99.90
3001;DHT22;1510;51.072;6.678;2023-10-31T03:14:55;9.60;99.90
3001;DHT22;1510;51.072;6.678;2023-10-31T03:17:22;9.50;99.90
3001;DHT22;1510;51.072;6.678;2023-10-31T03:19:51;9.60;99.90
3001;DHT22;1510;51.072;6.678;2023-10-31T03:22:17;9.60;99.90
3001;DHT22;1510;51.072;6.678;2023-10-31T03:24:44;9.60;99.90
3001;DHT22;1510;51.072;6.678;2023-10-31T03:27:11;9.70;99.90
3001;DHT22;1510;51.072;6.678;2023-10-31T03:29:38;9.70;99.90
3001;DHT22;1510;51.072;6.678;2023-10-31T03:32:07;9.70;99.90
3001;DHT22;1510;51.072;6.678;2023-10-31T03:34:34;9.80;99.90
3001;DHT22;1510;51.072;6.678;2023-10-31T03:37:01;9.90;99.90
3001;DHT22;1510;51.072;6.678;2023-10-31T03:39:28;9.90;99.90
3001;DHT22;1510;51.072;6.678;2023-10-31T03:41:55;10.00;99.90
3001;DHT22;1510;51.072;6.678;2023-10-31T03:44:22;10.10;99.90
3001;DHT22;1510;51.072;6.678;2023-10-31T03:46:48;10.20;99.90
3001;DHT22;1510;51.072;6.678;2023-10-31T03:49:17;10.20;99.90
3001;DHT22;1510;51.072;6.678;2023-10-31T03:51:43;10.30;99.90
3001;DHT22;1510;51.072;6.678;2023-10-31T03:54:10;10.40;99.90
3001;DHT22;1510;51.072;6.678;2023-10-31T03:56:40;10.40;99.90
3001;DHT22;1510;51.072;6.678;2023-10-31T03:59:07;10.50;99.90
3001;DHT22;1510;51.072;6.678;2023-10-31T04:01:34;10.50;99.90
3001;DHT22;1510;51.072;6.678;2023-10-31T04:04:01;10.60;99.90
3001;DHT22;1510;51.072;6.678;2023-10-31T04:06:29;10.60;99.90
3001;DHT22;1510;51.072;6.678;2023-10-31T04:08:56;10.70;99.90
3001;DHT22;1510;51.072;6.678;2023-10-31T04:11:22;10.70;99.90
3001;DHT22;1510;51.072;6.678;2023-10-31T04:13:49;10.70;99.90
3001;DHT22;1510;51.072;6.678;2023-10-31T04:16:16;10.70;99.90
3001;DHT22;1510;51.072;6.678;2023-10-31T04:18:43;10.80;99.90
3001;DHT22;1510;51.072;6.678;2023-10-31T04:21:10;10.80;99.90
3001;DHT22;1510;51.072;6.678;2023-10-31T04:23:38;10.80;99.90
3001;DHT22;1510;51.072;6.678;2023-10-31T04:26:05;10.80;99.90
3001;DHT22;1510;51.072;6.678;2023-10-31T04:28:32;10.80;99.90
3001;DHT22;1510;51.072;6.678;2023-10-31T04:30:59;10.80;99.90
3001;DHT22;1510;51.072;6.678;2023-10-31T04:33:26;10.90;99.90
3001;DHT22;1510;51.072;6.678;2023-10-31T04:35:53;10.90;99.90
3001;DHT22;1510;51.072;6.678;2023-10-31T04:38:19;10.90;99.90
3001;DHT22;1510;51.072;6.678;2023-10-31T04:40:47;10.90;99.90
3001;DHT22;1510;51.072;6.678;2023-10-31T04:43:14;10.90;99.90
3001;DHT22;1510;51.072;6.678;2023-10-31T04:45:41;10.90;99.90
3001;DHT22;1510;51.072;6.678;2023-10-31T04:48:09;11.00;99.90
3001;DHT22;1510;51.072;6.678;2023-10-31T04:50:35;11.00;99.90
3001;DHT22;1510;51.072;6.678;2023-10-31T04:53:02;11.00;99.90
3001;DHT22;1510;51.072;6.678;2023-10-31T04:55:29;11.00;99.90
3001;DHT22;1510;51.072;6.678;2023-10-31T04:57:57;11.10;99.90
3001;DHT22;1510;51.072;6.678;2023-10-31T05:00:24;11.00;99.90
3001;DHT22;1510;51.072;6.678;2023-10-31T05:02:51;11.10;99.90
3001;DHT22;1510;51.072;6.678;2023-10-31T05:05:18;11.10;99.90
3001;DHT22;1510;51.072;6.678;2023-10-31T05:07:45;11.10;99.90
3001;DHT22;1510;51.072;6.678;2023-10-31T05:10:12;11.10;99.90
3001;DHT22;1510;51.072;6.678;2023-10-31T05:12:39;11.10;99.90
3001;DHT22;1510;51.072;6.678;2023-10-31T05:15:08;11.10;99.90
3001;DHT22;1510;51.072;6.678;2023-10-31T05:17:35;11.10;99.90
3001;DHT22;1510;51.072;6.678;2023-10-31T05:20:02;11.00;99.90
3001;DHT22;1510;51.072;6.678;2023-10-31T05:22:29;11.10;99.90
3001;DHT22;1510;51.072;6.678;2023-10-31T05:24:56;11.10;99.90
3001;DHT22;1510;51.072;6.678;2023-10-31T05:27:23;11.10;99.90
3001;DHT22;1510;51.072;6.678;2023-10-31T05:29:49;11.10;99.90
3001;DHT22;1510;51.072;6.678;2023-10-31T05:32:18;11.10;99.90
3001;DHT22;1510;51.072;6.678;2023-10-31T05:34:45;11.10;99.90
3001;DHT22;1510;51.072;6.678;2023-10-31T05:37:11;11.10;99.90
3001;DHT22;1510;51.072;6.678;2023-10-31T05:39:38;11.10;99.90
3001;DHT22;1510;51.072;6.678;2023-10-31T05:42:05;11.10;99.90
3001;DHT22;1510;51.072;6.678;2023-10-31T05:44:32;11.10;99.90
3001;DHT22;1510;51.072;6.678;2023-10-31T05:46:59;11.10;99.90
3001;DHT22;1510;51.072;6.678;2023-10-31T05:49:27;11.10;99.90
3001;DHT22;1510;51.072;6.678;2023-10-31T05:51:54;11.10;99.90
3001;DHT22;1510;51.072;6.678;2023-10-31T05:54:21;11.10;99.90
3001;DHT22;1510;51.072;6.678;2023-10-31T05:56:48;11.10;99.90
3001;DHT22;1510;51.072;6.678;2023-10-31T05:59:14;11.10;99.90
3001;DHT22;1510;51.072;6.678;2023-10-31T06:01:41;11.10;99.90
3001;DHT22;1510;51.072;6.678;2023-10-31T06:04:09;11.10;99.90
3001;DHT22;1510;51.072;6.678;2023-10-31T06:06:38;11.10;99.90
3001;DHT22;1510;51.072;6.678;2023-10-31T06:09:05;11.10;99.90
3001;DHT22;1510;51.072;6.678;2023-10-31T06:11:32;11.00;99.90
3001;DHT22;1510;51.072;6.678;2023-10-31T06:13:59;11.00;99.90
3001;DHT22;1510;51.072;6.678;2023-10-31T06:16:26;11.00;99.90
3001;DHT22;1510;51.072;6.678;2023-10-31T06:18:53;11.00;99.90
3001;DHT22;1510;51.072;6.678;2023-10-31T06:21:20;11.00;99.90
3001;DHT22;1510;51.072;6.678;2023-10-31T06:23:48;11.00;99.90
3001;DHT22;1510;51.072;6.678;2023-10-31T06:26:16;11.00;99.90
3001;DHT22;1510;51.072;6.678;2023-10-31T06:28:42;11.00;99.90
3001;DHT22;1510;51.072;6.678;2023-10-31T06:31:09;10.90;99.90
3001;DHT22;1510;51.072;6.678;2023-10-31T06:33:36;10.90;99.90
3001;DHT22;1510;51.072;6.678;2023-10-31T06:36:05;10.80;99.90
3001;DHT22;1510;51.072;6.678;2023-10-31T06:38:32;10.80;99.90
3001;DHT22;1510;51.072;6.678;2023-10-31T06:41:00;10.80;99.90
3001;DHT22;1510;51.072;6.678;2023-10-31T06:43:27;10.80;99.90
3001;DHT22;1510;51.072;6.678;2023-10-31T06:45:54;10.90;99.90
3001;DHT22;1510;51.072;6.678;2023-10-31T06:48:22;10.80;99.90
3001;DHT22;1510;51.072;6.678;2023-10-31T06:50:49;10.70;99.90
3001;DHT22;1510;51.072;6.678;2023-10-31T06:53:16;10.60;99.90
3001;DHT22;1510;51.072;6.678;2023-10-31T06:55:43;10.50;99.90
3001;DHT22;1510;51.072;6.678;2023-10-31T06:58:11;10.50;99.90
3001;DHT22;1510;51.072;6.678;2023-10-31T07:00:38;10.40;99.90
3001;DHT22;1510;51.072;6.678;2023-10-31T07:03:04;10.30;99.90
3001;DHT22;1510;51.072;6.678;2023-10-31T07:05:34;10.30;99.90
3001;DHT22;1510;51.072;6.678;2023-10-31T07:08:01;10.40;99.90
3001;DHT22;1510;51.072;6.678;2023-10-31T07:10:28;10.30;99.90
3001;DHT22;1510;51.072;6.678;2023-10-31T07:12:55;10.30;99.90
3001;DHT22;1510;51.072;6.678;2023-10-31T07:15:28;10.30;99.90
3001;DHT22;1510;51.072;6.678;2023-10-31T07:17:55;10.30;99.90
3001;DHT22;1510;51.072;6.678;2023-10-31T07:20:22;10.30;99.90
3001;DHT22;1510;51.072;6.678;2023-10-31T07:22:49;10.40;99.90
3001;DHT22;1510;51.072;6.678;2023-10-31T07:25:16;10.40;99.90
3001;DHT22;1510;51.072;6.678;2023-10-31T07:27:43;10.40;99.90
3001;DHT22;1510;51.072;6.678;2023-10-31T07:30:10;10.40;99.90
3001;DHT22;1510;51.072;6.678;2023-10-31T07:32:39;10.50;99.90
3001;DHT22;1510;51.072;6.678;2023-10-31T07:35:06;10.50;99.90
3001;DHT22;1510;51.072;6.678;2023-10-31T07:37:33;10.50;99.90
3001;DHT22;1510;51.072;6.678;2023-10-31T07:40:00;10.60;99.90
3001;DHT22;1510;51.072;6.678;2023-10-31T07:42:27;10.60;99.90
3001;DHT22;1510;51.072;6.678;2023-10-31T07:44:54;10.60;99.90
3001;DHT22;1510;51.072;6.678;2023-10-31T07:47:21;10.70;99.90
3001;DHT22;1510;51.072;6.678;2023-10-31T07:49:49;10.80;99.90
3001;DHT22;1510;51.072;6.678;2023-10-31T07:52:16;10.90;99.90
3001;DHT22;1510;51.072;6.678;2023-10-31T07:54:43;11.00;99.90
3001;DHT22;1510;51.072;6.678;2023-10-31T07:57:10;11.10;99.90
3001;DHT22;1510;51.072;6.678;2023-10-31T07:59:37;11.10;99.90
3001;DHT22;1510;51.072;6.678;2023-10-31T08:02:04;11.10;99.90
3001;DHT22;1510;51.072;6.678;2023-10-31T08:04:31;11.10;99.90
3001;DHT22;1510;51.072;6.678;2023-10-31T08:06:59;11.10;99.90
3001;DHT22;1510;51.072;6.678;2023-10-31T08:09:26;11.10;99.90
3001;DHT22;1510;51.072;6.678;2023-10-31T08:11:52;11.20;99.90
3001;DHT22;1510;51.072;6.678;2023-10-31T08:14:19;11.20;99.90
3001;DHT22;1510;51.072;6.678;2023-10-31T08:16:47;11.20;99.90
3001;DHT22;1510;51.072;6.678;2023-10-31T08:19:14;11.30;99.90
3001;DHT22;1510;51.072;6.678;2023-10-31T08:21:41;11.30;99.90
3001;DHT22;1510;51.072;6.678;2023-10-31T08:24:09;11.30;99.90
3001;DHT22;1510;51.072;6.678;2023-10-31T08:26:39;11.30;99.90
3001;DHT22;1510;51.072;6.678;2023-10-31T08:29:05;11.40;99.90
3001;DHT22;1510;51.072;6.678;2023-10-31T08:31:32;11.50;99.90
3001;DHT22;1510;51.072;6.678;2023-10-31T08:33:59;11.50;99.90
3001;DHT22;1510;51.072;6.678;2023-10-31T08:36:26;11.60;99.90
3001;DHT22;1510;51.072;6.678;2023-10-31T08:38:53;11.70;99.90
3001;DHT22;1510;51.072;6.678;2023-10-31T08:41:22;11.80;99.90
3001;DHT22;1510;51.072;6.678;2023-10-31T08:43:49;11.80;99.90
3001;DHT22;1510;51.072;6.678;2023-10-31T08:46:15;11.80;99.90
3001;DHT22;1510;51.072;6.678;2023-10-31T08:48:43;11.80;99.90
3001;DHT22;1510;51.072;6.678;2023-10-31T08:51:10;11.80;99.90
3001;DHT22;1510;51.072;6.678;2023-10-31T08:53:36;11.90;99.90
3001;DHT22;1510;51.072;6.678;2023-10-31T08:56:04;11.90;99.90
3001;DHT22;1510;51.072;6.678;2023-10-31T08:58:32;11.90;99.90
3001;DHT22;1510;51.072;6.678;2023-10-31T09:00:59;11.90;99.90
3001;DHT22;1510;51.072;6.678;2023-10-31T09:03:26;12.00;99.90
3001;DHT22;1510;51.072;6.678;2023-10-31T09:05:53;12.00;99.90
3001;DHT22;1510;51.072;6.678;2023-10-31T09:08:19;12.20;99.90
3001;DHT22;1510;51.072;6.678;2023-10-31T09:10:46;12.20;99.90
3001;DHT22;1510;51.072;6.678;2023-10-31T09:13:14;12.30;99.90
3001;DHT22;1510;51.072;6.678;2023-10-31T09:15:42;12.40;99.90
3001;DHT22;1510;51.072;6.678;2023-10-31T09:18:11;12.50;99.90
3001;DHT22;1510;51.072;6.678;2023-10-31T09:20:38;12.50;99.90
3001;DHT22;1510;51.072;6.678;2023-10-31T09:23:05;12.50;99.90
3001;DHT22;1510;51.072;6.678;2023-10-31T09:25:32;12.60;99.90
3001;DHT22;1510;51.072;6.678;2023-10-31T09:27:58;12.50;99.90
3001;DHT22;1510;51.072;6.678;2023-10-31T09:30:25;12.60;99.90
3001;DHT22;1510;51.072;6.678;2023-10-31T09:32:53;12.70;99.90
3001;DHT22;1510;51.072;6.678;2023-10-31T09:35:20;12.80;99.90
3001;DHT22;1510;51.072;6.678;2023-10-31T09:37:47;13.00;99.90
3001;DHT22;1510;51.072;6.678;2023-10-31T09:40:15;13.30;99.90
3001;DHT22;1510;51.072;6.678;2023-10-31T09:42:42;14.00;99.90
3001;DHT22;1510;51.072;6.678;2023-10-31T09:45:09;14.50;99.90
3001;DHT22;1510;51.072;6.678;2023-10-31T09:47:36;14.80;99.60
3001;DHT22;1510;51.072;6.678;2023-10-31T09:50:05;15.00;99.70
3001;DHT22;1510;51.072;6.678;2023-10-31T09:52:34;14.90;93.00
3001;DHT22;1510;51.072;6.678;2023-10-31T09:55:02;15.10;93.70
3001;DHT22;1510;51.072;6.678;2023-10-31T09:57:29;15.10;93.10
3001;DHT22;1510;51.072;6.678;2023-10-31T09:59:56;14.70;92.90
3001;DHT22;1510;51.072;6.678;2023-10-31T10:02:23;14.40;94.50
3001;DHT22;1510;51.072;6.678;2023-10-31T10:04:49;14.20;95.80
3001;DHT22;1510;51.072;6.678;2023-10-31T10:07:18;14.40;95.90
3001;DHT22;1510;51.072;6.678;2023-10-31T10:09:46;14.60;93.20
3001;DHT22;1510;51.072;6.678;2023-10-31T10:12:14;14.60;92.90
3001;DHT22;1510;51.072;6.678;2023-10-31T10:14:41;15.10;93.10
3001;DHT22;1510;51.072;6.678;2023-10-31T10:17:14;15.10;93.10
3001;DHT22;1510;51.072;6.678;2023-10-31T10:19:42;15.30;93.20
3001;DHT22;1510;51.072;6.678;2023-10-31T10:22:08;15.50;93.20
3001;DHT22;1510;51.072;6.678;2023-10-31T10:24:39;15.40;89.60
3001;DHT22;1510;51.072;6.678;2023-10-31T10:27:07;15.20;89.30
3001;DHT22;1510;51.072;6.678;2023-10-31T10:29:34;14.90;89.10
3001;DHT22;1510;51.072;6.678;2023-10-31T10:32:05;14.50;88.80
3001;DHT22;1510;51.072;6.678;2023-10-31T10:34:33;14.30;90.20
3001;DHT22;1510;51.072;6.678;2023-10-31T10:37:01;14.20;91.00
3001;DHT22;1510;51.072;6.678;2023-10-31T10:39:33;14.10;92.00
3001;DHT22;1510;51.072;6.678;2023-10-31T10:42:01;14.40;91.50
3001;DHT22;1510;51.072;6.678;2023-10-31T10:44:32;14.80;89.10
3001;DHT22;1510;51.072;6.678;2023-10-31T10:47:02;15.00;87.70
3001;DHT22;1510;51.072;6.678;2023-10-31T10:49:33;15.40;81.90
3001;DHT22;1510;51.072;6.678;2023-10-31T10:52:11;15.90;82.30
3001;DHT22;1510;51.072;6.678;2023-10-31T10:54:45;16.40;78.10
3001;DHT22;1510;51.072;6.678;2023-10-31T10:57:19;17.00;75.30
3001;DHT22;1510;51.072;6.678;2023-10-31T10:59:49;16.80;67.20
3001;DHT22;1510;51.072;6.678;2023-10-31T11:02:19;16.10;66.60
3001;DHT22;1510;51.072;6.678;2023-10-31T11:04:47;15.80;74.30
3001;DHT22;1510;51.072;6.678;2023-10-31T11:07:15;15.40;74.00
3001;DHT22;1510;51.072;6.678;2023-10-31T11:09:44;15.30;79.20
3001;DHT22;1510;51.072;6.678;2023-10-31T11:12:12;15.20;77.50
3001;DHT22;1510;51.072;6.678;2023-10-31T11:14:43;15.20;81.60
3001;DHT22;1510;51.072;6.678;2023-10-31T11:17:15;15.30;81.70
3001;DHT22;1510;51.072;6.678;2023-10-31T11:19:45;15.40;81.80
3001;DHT22;1510;51.072;6.678;2023-10-31T11:22:12;15.30;78.50
3001;DHT22;1510;51.072;6.678;2023-10-31T11:24:39;15.20;76.70
3001;DHT22;1510;51.072;6.678;2023-10-31T11:27:07;15.20;77.50
3001;DHT22;1510;51.072;6.678;2023-10-31T11:29:35;15.20;73.90
3001;DHT22;1510;51.072;6.678;2023-10-31T11:32:08;15.10;81.60
3001;DHT22;1510;51.072;6.678;2023-10-31T11:34:37;15.00;79.30
3001;DHT22;1510;51.072;6.678;2023-10-31T11:37:23;14.90;81.40
3001;DHT22;1510;51.072;6.678;2023-10-31T11:40:18;14.80;81.30
3001;DHT22;1510;51.072;6.678;2023-10-31T11:42:48;14.50;81.10
3001;DHT22;1510;51.072;6.678;2023-10-31T11:45:26;14.40;81.00
3001;DHT22;1510;51.072;6.678;2023-10-31T11:47:55;14.30;80.90
3001;DHT22;1510;51.072;6.678;2023-10-31T11:50:22;14.50;81.10
3001;DHT22;1510;51.072;6.678;2023-10-31T11:53:03;14.60;81.20
3001;DHT22;1510;51.072;6.678;2023-10-31T11:55:35;14.70;81.20
3001;DHT22;1510;51.072;6.678;2023-10-31T11:58:16;14.60;81.10
3001;DHT22;1510;51.072;6.678;2023-10-31T12:00:43;14.90;81.40
3001;DHT22;1510;51.072;6.678;2023-10-31T12:03:12;15.20;81.70
3001;DHT22;1510;51.072;6.678;2023-10-31T12:05:39;15.40;74.90
3001;DHT22;1510;51.072;6.678;2023-10-31T12:08:06;15.40;74.00
3001;DHT22;1510;51.072;6.678;2023-10-31T12:10:33;15.50;76.80
3001;DHT22;1510;51.072;6.678;2023-10-31T12:12:59;15.50;74.10
3001;DHT22;1510;51.072;6.678;2023-10-31T12:15:26;15.60;74.20
3001;DHT22;1510;51.072;6.678;2023-10-31T12:17:58;15.60;74.40
3001;DHT22;1510;51.072;6.678;2023-10-31T12:20:26;15.70;82.10
3001;DHT22;1510;51.072;6.678;2023-10-31T12:23:03;15.80;82.10
3001;DHT22;1510;51.072;6.678;2023-10-31T12:25:30;15.70;74.20
3001;DHT22;1510;51.072;6.678;2023-10-31T12:28:00;15.60;74.10
3001;DHT22;1510;51.072;6.678;2023-10-31T12:30:27;15.60;74.30
3001;DHT22;1510;51.072;6.678;2023-10-31T12:32:55;15.90;71.60
3001;DHT22;1510;51.072;6.678;2023-10-31T12:35:23;16.30;70.60
3001;DHT22;1510;51.072;6.678;2023-10-31T12:37:52;16.60;69.90
3001;DHT22;1510;51.072;6.678;2023-10-31T12:40:21;16.50;67.70
3001;DHT22;1510;51.072;6.678;2023-10-31T12:42:48;16.90;67.30
3001;DHT22;1510;51.072;6.678;2023-10-31T12:45:17;17.60;67.90
3001;DHT22;1510;51.072;6.678;2023-10-31T12:47:44;17.90;60.00
3001;DHT22;1510;51.072;6.678;2023-10-31T12:50:13;17.60;59.60
3001;DHT22;1510;51.072;6.678;2023-10-31T12:52:50;17.50;59.50
3001;DHT22;1510;51.072;6.678;2023-10-31T12:55:20;17.60;59.60
3001;DHT22;1510;51.072;6.678;2023-10-31T12:57:48;17.60;59.60
3001;DHT22;1510;51.072;6.678;2023-10-31T13:00:16;16.70;56.00
3001;DHT22;1510;51.072;6.678;2023-10-31T13:02:50;16.30;61.40
3001;DHT22;1510;51.072;6.678;2023-10-31T13:05:18;15.60;66.10
3001;DHT22;1510;51.072;6.678;2023-10-31T13:07:48;15.20;65.80
3001;DHT22;1510;51.072;6.678;2023-10-31T13:10:16;15.00;70.30
3001;DHT22;1510;51.072;6.678;2023-10-31T13:12:45;15.00;72.60
3001;DHT22;1510;51.072;6.678;2023-10-31T13:15:12;14.90;73.50
3001;DHT22;1510;51.072;6.678;2023-10-31T13:17:40;14.80;73.40
3001;DHT22;1510;51.072;6.678;2023-10-31T13:20:09;14.60;73.20
3001;DHT22;1510;51.072;6.678;2023-10-31T13:22:36;14.70;73.30
3001;DHT22;1510;51.072;6.678;2023-10-31T13:25:04;14.50;73.20
3001;DHT22;1510;51.072;6.678;2023-10-31T13:27:33;14.50;78.10
3001;DHT22;1510;51.072;6.678;2023-10-31T13:30:02;14.40;80.90
3001;DHT22;1510;51.072;6.678;2023-10-31T13:32:29;14.20;80.70
3001;DHT22;1510;51.072;6.678;2023-10-31T13:34:56;14.10;80.70
3001;DHT22;1510;51.072;6.678;2023-10-31T13:37:23;14.00;80.60
3001;DHT22;1510;51.072;6.678;2023-10-31T13:39:50;13.90;80.50
3001;DHT22;1510;51.072;6.678;2023-10-31T13:42:17;13.90;80.50
3001;DHT22;1510;51.072;6.678;2023-10-31T13:44:44;14.00;80.50
3001;DHT22;1510;51.072;6.678;2023-10-31T13:47:12;14.00;80.50
3001;DHT22;1510;51.072;6.678;2023-10-31T13:49:39;13.90;80.50
3001;DHT22;1510;51.072;6.678;2023-10-31T13:52:06;13.90;80.50
3001;DHT22;1510;51.072;6.678;2023-10-31T13:54:33;14.00;80.60
3001;DHT22;1510;51.072;6.678;2023-10-31T13:57:00;13.90;80.50
3001;DHT22;1510;51.072;6.678;2023-10-31T13:59:27;13.90;80.50
3001;DHT22;1510;51.072;6.678;2023-10-31T14:01:54;13.90;80.50
3001;DHT22;1510;51.072;6.678;2023-10-31T14:04:22;13.80;80.40
3001;DHT22;1510;51.072;6.678;2023-10-31T14:06:49;13.90;80.50
3001;DHT22;1510;51.072;6.678;2023-10-31T14:09:16;13.90;80.50
3001;DHT22;1510;51.072;6.678;2023-10-31T14:11:43;13.90;80.50
3001;DHT22;1510;51.072;6.678;2023-10-31T14:14:10;13.80;80.40
3001;DHT22;1510;51.072;6.678;2023-10-31T14:16:38;13.80;80.40
3001;DHT22;1510;51.072;6.678;2023-10-31T14:19:06;13.60;80.20
3001;DHT22;1510;51.072;6.678;2023-10-31T14:21:34;13.60;80.20
3001;DHT22;1510;51.072;6.678;2023-10-31T14:24:02;13.50;80.20
3001;DHT22;1510;51.072;6.678;2023-10-31T14:26:29;13.50;80.90
3001;DHT22;1510;51.072;6.678;2023-10-31T14:28:58;13.40;80.10
3001;DHT22;1510;51.072;6.678;2023-10-31T14:31:25;13.50;80.10
3001;DHT22;1510;51.072;6.678;2023-10-31T14:33:52;13.50;80.10
3001;DHT22;1510;51.072;6.678;2023-10-31T14:36:19;13.60;80.20
3001;DHT22;1510;51.072;6.678;2023-10-31T14:38:47;13.60;80.30
3001;DHT22;1510;51.072;6.678;2023-10-31T14:41:14;13.50;80.20
3001;DHT22;1510;51.072;6.678;2023-10-31T14:43:41;13.50;80.20
3001;DHT22;1510;51.072;6.678;2023-10-31T14:46:08;13.50;80.10
3001;DHT22;1510;51.072;6.678;2023-10-31T14:48:35;13.70;82.50
3001;DHT22;1510;51.072;6.678;2023-10-31T14:51:02;13.80;80.40
3001;DHT22;1510;51.072;6.678;2023-10-31T14:53:29;13.80;80.40
3001;DHT22;1510;51.072;6.678;2023-10-31T14:55:58;13.80;82.10
3001;DHT22;1510;51.072;6.678;2023-10-31T14:58:25;13.80;80.70
3001;DHT22;1510;51.072;6.678;2023-10-31T15:00:52;13.70;84.20
3001;DHT22;1510;51.072;6.678;2023-10-31T15:03:19;13.60;85.70
3001;DHT22;1510;51.072;6.678;2023-10-31T15:05:46;13.40;85.10
3001;DHT22;1510;51.072;6.678;2023-10-31T15:08:13;13.30;87.70
3001;DHT22;1510;51.072;6.678;2023-10-31T15:10:40;13.20;87.60
3001;DHT22;1510;51.072;6.678;2023-10-31T15:13:08;13.00;90.20
3001;DHT22;1510;51.072;6.678;2023-10-31T15:15:35;13.00;90.70
3001;DHT22;1510;51.072;6.678;2023-10-31T15:18:02;13.00;92.20
3001;DHT22;1510;51.072;6.678;2023-10-31T15:20:29;13.00;91.90
3001;DHT22;1510;51.072;6.678;2023-10-31T15:22:56;13.10;92.20
3001;DHT22;1510;51.072;6.678;2023-10-31T15:25:23;13.10;92.20
3001;DHT22;1510;51.072;6.678;2023-10-31T15:27:49;13.10;92.20
3001;DHT22;1510;51.072;6.678;2023-10-31T15:30:18;13.10;92.20
3001;DHT22;1510;51.072;6.678;2023-10-31T15:32:44;13.10;92.20
3001;DHT22;1510;51.072;6.678;2023-10-31T15:35:11;13.10;92.20
3001;DHT22;1510;51.072;6.678;2023-10-31T15:37:38;13.10;92.30
3001;DHT22;1510;51.072;6.678;2023-10-31T15:40:07;13.00;92.20
3001;DHT22;1510;51.072;6.678;2023-10-31T15:42:34;13.00;92.20
3001;DHT22;1510;51.072;6.678;2023-10-31T15:45:01;13.00;92.20
3001;DHT22;1510;51.072;6.678;2023-10-31T15:47:30;12.90;94.00
3001;DHT22;1510;51.072;6.678;2023-10-31T15:49:57;12.90;97.00
3001;DHT22;1510;51.072;6.678;2023-10-31T15:52:24;12.70;98.70
3001;DHT22;1510;51.072;6.678;2023-10-31T15:54:51;12.30;99.90
3001;DHT22;1510;51.072;6.678;2023-10-31T15:57:18;12.00;99.90
3001;DHT22;1510;51.072;6.678;2023-10-31T15:59:47;11.70;99.90
3001;DHT22;1510;51.072;6.678;2023-10-31T16:02:14;11.60;99.90
3001;DHT22;1510;51.072;6.678;2023-10-31T16:04:44;11.50;99.90